Time;durP1;ratioP1;P1;durP2;ratioP2;P2;SDS_P1;SDS_P2;PMS_P1;PMS_P2;Temp;Humidity;BMP_temperature;BMP_pressure;BME280_temperature;BME280_humidity;BME280_pressure;Samples;Min_cycle;Max_cycle;Signal;HPM_P1;HPM_P2
2022/02/15 00:01:28;;;;;;;13.53;10.10;;;;;;;;;;4983067;28;20278;-59
2022/02/15 00:03:53;;;;;;;14.40;10.17;;;;;;;;;;4982558;28;20799;-59
2022/02/15 00:06:19;;;;;;;14.18;10.15;;;;;;;;;;4982411;28;20738;-56
2022/02/15 00:08:44;;;;;;;12.17;10.13;;;;;;;;;;4983181;28;20058;-58
2022/02/15 00:11:09;;;;;;;15.10;11.27;;;;;;;;;;4983043;28;20265;-58
2022/02/15 00:13:34;;;;;;;13.20;10.50;;;;;;;;;;4982259;28;20025;-58
2022/02/15 00:15:59;;;;;;;13.40;9.93;;;;;;;;;;4982491;28;20277;-57
2022/02/15 00:18:25;;;;;;;14.75;10.88;;;;;;;;;;4982767;28;20787;-59
2022/02/15 00:20:50;;;;;;;13.47;10.30;;;;;;;;;;4961545;28;20034;-58
2022/02/15 00:23:15;;;;;;;13.82;10.70;;;;;;;;;;4971492;28;20370;-59
2022/02/15 00:25:40;;;;;;;15.33;10.50;;;;;;;;;;4982820;28;20062;-59
2022/02/15 00:28:06;;;;;;;14.63;11.13;;;;;;;;;;4982465;28;20030;-58
2022/02/15 00:30:31;;;;;;;13.30;9.90;;;;;;;;;;4982427;28;20309;-58
2022/02/15 00:32:56;;;;;;;15.38;11.13;;;;;;;;;;4982352;28;20276;-58
2022/02/15 00:35:21;;;;;;;13.70;10.70;;;;;;;;;;4974115;28;20030;-59
2022/02/15 00:37:47;;;;;;;13.70;10.43;;;;;;;;;;4975838;28;20282;-58
2022/02/15 00:40:12;;;;;;;13.80;10.73;;;;;;;;;;4982535;28;20048;-59
2022/02/15 00:42:37;;;;;;;12.85;10.30;;;;;;;;;;4981649;28;20335;-57
2022/02/15 00:45:03;;;;;;;13.77;10.60;;;;;;;;;;4968560;28;20034;-58
2022/02/15 00:47:28;;;;;;;14.75;10.30;;;;;;;;;;4971430;28;20757;-59
2022/02/15 00:49:53;;;;;;;15.00;10.70;;;;;;;;;;4975760;28;20034;-59
2022/02/15 00:52:19;;;;;;;13.33;10.50;;;;;;;;;;4965307;28;20266;-57
2022/02/15 00:54:44;;;;;;;14.70;11.15;;;;;;;;;;4966719;28;20281;-56
2022/02/15 00:57:10;;;;;;;13.23;10.00;;;;;;;;;;4981788;28;20019;-59
2022/02/15 00:59:35;;;;;;;13.73;10.55;;;;;;;;;;4982471;28;20089;-58
2022/02/15 01:02:01;;;;;;;14.98;10.60;;;;;;;;;;4982426;28;20477;-58
2022/02/15 01:04:26;;;;;;;14.07;10.33;;;;;;;;;;4963782;28;20048;-57
2022/02/15 01:06:51;;;;;;;13.50;10.23;;;;;;;;;;4964260;28;20094;-59
2022/02/15 01:09:16;;;;;;;13.40;10.47;;;;;;;;;;4973453;28;20033;-59
2022/02/15 01:11:41;;;;;;;15.40;10.67;;;;;;;;;;4974058;28;20312;-56
2022/02/15 01:14:07;;;;;;;14.67;11.03;;;;;;;;;;4981961;28;20327;-59
2022/02/15 01:16:32;;;;;;;13.43;10.38;;;;;;;;;;4979332;28;20038;-56
2022/02/15 01:18:57;;;;;;;14.73;10.50;;;;;;;;;;4968524;28;20085;-59
2022/02/15 01:21:23;;;;;;;14.73;10.50;;;;;;;;;;4981610;28;20339;-59
2022/02/15 01:23:48;;;;;;;15.73;11.67;;;;;;;;;;4981731;28;20045;-58
2022/02/15 01:26:13;;;;;;;13.93;10.70;;;;;;;;;;4981898;28;20098;-58
2022/02/15 01:28:38;;;;;;;12.43;10.07;;;;;;;;;;4981017;28;20026;-58
2022/02/15 01:31:04;;;;;;;14.15;10.82;;;;;;;;;;4982035;28;20312;-58
2022/02/15 01:33:29;;;;;;;14.65;11.27;;;;;;;;;;4981267;28;20084;-59
2022/02/15 01:35:54;;;;;;;12.83;9.97;;;;;;;;;;4980842;28;20114;-58
2022/02/15 01:38:19;;;;;;;14.13;11.23;;;;;;;;;;4981338;28;20368;-58
2022/02/15 01:40:44;;;;;;;13.07;10.40;;;;;;;;;;4949733;28;20270;-56
2022/02/15 01:43:10;;;;;;;13.60;10.13;;;;;;;;;;4981300;28;21192;-59
2022/02/15 01:45:35;;;;;;;13.53;10.63;;;;;;;;;;4981507;28;20500;-59
2022/02/15 01:48:00;;;;;;;14.90;10.90;;;;;;;;;;4978157;28;20507;-56
2022/02/15 01:50:25;;;;;;;14.43;10.75;;;;;;;;;;4964273;28;20425;-58
2022/02/15 01:52:51;;;;;;;13.67;10.67;;;;;;;;;;4981434;28;20073;-58
2022/02/15 01:55:16;;;;;;;14.93;10.70;;;;;;;;;;4981381;28;20273;-58
2022/02/15 01:57:42;;;;;;;13.30;10.40;;;;;;;;;;4969442;28;20034;-58
2022/02/15 02:00:08;;;;;;;13.80;10.38;;;;;;;;;;4959718;28;20269;-58
2022/02/15 02:02:33;;;;;;;13.80;10.10;;;;;;;;;;4981046;28;20269;-57
2022/02/15 02:07:42;;;;;;;14.38;10.63;;;;;;;;;;4981236;28;20091;-58
2022/02/15 02:10:07;;;;;;;13.27;10.37;;;;;;;;;;4981288;28;20026;-59
2022/02/15 02:12:33;;;;;;;15.15;10.68;;;;;;;;;;4980568;28;20434;-58
2022/02/15 02:15:01;;;;;;;13.23;10.97;;;;;;;;;;4975794;28;20042;-59
2022/02/15 02:17:26;;;;;;;15.55;10.65;;;;;;;;;;4970610;28;20270;-60
2022/02/15 02:19:55;;;;;;;14.80;10.95;;;;;;;;;;4975403;28;20061;-60
2022/02/15 02:22:24;;;;;;;14.85;11.10;;;;;;;;;;4981432;28;20110;-60
2022/02/15 02:24:49;;;;;;;15.00;11.23;;;;;;;;;;4980000;28;20065;-60
2022/02/15 02:27:16;;;;;;;12.50;10.43;;;;;;;;;;4972265;28;20046;-59
2022/02/15 02:29:41;;;;;;;13.40;10.48;;;;;;;;;;4963848;28;20027;-59
2022/02/15 02:32:07;;;;;;;13.53;10.27;;;;;;;;;;4962199;28;20056;-59
2022/02/15 02:34:32;;;;;;;15.50;11.48;;;;;;;;;;4983628;28;20085;-59
2022/02/15 02:36:57;;;;;;;14.67;11.30;;;;;;;;;;4984094;28;20436;-59
2022/02/15 02:39:23;;;;;;;12.93;10.77;;;;;;;;;;4966846;28;20468;-59
2022/02/15 02:41:49;;;;;;;15.65;10.57;;;;;;;;;;4983695;28;20068;-59
2022/02/15 02:44:14;;;;;;;14.17;10.90;;;;;;;;;;4983899;28;20074;-59
2022/02/15 02:46:39;;;;;;;15.27;11.87;;;;;;;;;;4983674;28;20277;-59
2022/02/15 02:49:04;;;;;;;13.77;10.20;;;;;;;;;;4977636;28;20034;-57
2022/02/15 02:51:30;;;;;;;14.43;10.63;;;;;;;;;;4974476;28;20018;-59
2022/02/15 02:53:55;;;;;;;14.97;10.67;;;;;;;;;;4983972;28;20276;-59
2022/02/15 02:56:20;;;;;;;15.83;10.80;;;;;;;;;;4983773;28;20343;-58
2022/02/15 02:58:45;;;;;;;14.32;10.55;;;;;;;;;;4983530;28;20347;-59
2022/02/15 03:01:10;;;;;;;13.37;10.27;;;;;;;;;;4983663;28;20022;-57
2022/02/15 03:03:36;;;;;;;14.20;10.33;;;;;;;;;;4973407;28;20802;-58
2022/02/15 03:06:04;;;;;;;13.30;10.45;;;;;;;;;;4963641;28;20921;-58
2022/02/15 03:08:29;;;;;;;14.00;10.25;;;;;;;;;;4964091;28;20536;-59
2022/02/15 03:10:54;;;;;;;13.50;10.17;;;;;;;;;;4975193;28;20022;-59
2022/02/15 03:13:21;;;;;;;13.43;10.57;;;;;;;;;;4972597;28;20014;-59
2022/02/15 03:15:46;;;;;;;13.55;10.15;;;;;;;;;;4983742;28;20076;-58
2022/02/15 03:18:11;;;;;;;12.73;9.87;;;;;;;;;;4983627;28;20030;-59
2022/02/15 03:20:37;;;;;;;12.50;9.88;;;;;;;;;;4982857;28;20036;-57
2022/02/15 03:23:02;;;;;;;13.67;10.60;;;;;;;;;;4977614;28;20536;-57
2022/02/15 03:25:27;;;;;;;13.03;10.33;;;;;;;;;;4964184;28;21037;-58
2022/02/15 03:27:52;;;;;;;14.67;11.53;;;;;;;;;;4963431;28;20642;-59
2022/02/15 03:30:17;;;;;;;14.00;10.57;;;;;;;;;;4963753;28;20489;-59
2022/02/15 03:32:43;;;;;;;14.30;10.23;;;;;;;;;;4963812;28;20579;-57
2022/02/15 03:35:08;;;;;;;14.02;10.57;;;;;;;;;;4970269;28;20675;-59
2022/02/15 03:37:33;;;;;;;12.85;9.77;;;;;;;;;;4983327;28;20037;-59
2022/02/15 03:39:58;;;;;;;13.95;10.68;;;;;;;;;;4983299;28;20041;-58
2022/02/15 03:45:08;;;;;;;14.25;10.30;;;;;;;;;;4982802;28;20038;-59
2022/02/15 03:47:33;;;;;;;13.52;9.82;;;;;;;;;;4982714;28;20038;-57
2022/02/15 03:49:58;;;;;;;13.20;10.03;;;;;;;;;;4982578;28;20034;-59
2022/02/15 03:52:23;;;;;;;12.83;10.07;;;;;;;;;;4964412;28;20286;-59
2022/02/15 03:54:49;;;;;;;14.60;10.45;;;;;;;;;;4982898;28;20022;-59
2022/02/15 03:57:14;;;;;;;12.67;10.33;;;;;;;;;;4982062;28;20031;-58
2022/02/15 03:59:39;;;;;;;14.95;10.93;;;;;;;;;;4983196;28;20022;-58
2022/02/15 04:02:04;;;;;;;14.53;10.23;;;;;;;;;;4982621;28;20033;-59
2022/02/15 04:04:29;;;;;;;13.38;10.10;;;;;;;;;;4979846;28;21223;-59
2022/02/15 04:06:55;;;;;;;13.87;10.23;;;;;;;;;;4974403;28;20019;-59
2022/02/15 04:09:20;;;;;;;15.10;10.23;;;;;;;;;;4982633;28;20660;-59
2022/02/15 04:11:46;;;;;;;13.20;10.43;;;;;;;;;;4981932;28;20061;-57
2022/02/15 04:14:11;;;;;;;13.52;10.40;;;;;;;;;;4982164;28;20062;-58
2022/02/15 04:16:37;;;;;;;12.97;10.10;;;;;;;;;;4982654;28;20022;-59
2022/02/15 04:19:02;;;;;;;13.18;10.10;;;;;;;;;;4961542;28;20274;-59
2022/02/15 04:21:27;;;;;;;13.02;10.18;;;;;;;;;;4972169;28;20018;-59
2022/02/15 04:23:52;;;;;;;14.03;10.30;;;;;;;;;;4982190;28;20025;-59
2022/02/15 04:26:18;;;;;;;13.73;10.43;;;;;;;;;;4982430;28;20030;-59
2022/02/15 04:28:43;;;;;;;11.23;8.73;;;;;;;;;;4978120;28;20011;-59
2022/02/15 04:31:08;;;;;;;13.40;10.10;;;;;;;;;;4969287;28;20266;-59
2022/02/15 04:33:33;;;;;;;12.18;9.38;;;;;;;;;;4982048;28;20104;-59
2022/02/15 04:35:59;;;;;;;11.40;9.00;;;;;;;;;;4981740;28;20417;-59
2022/02/15 04:38:24;;;;;;;12.70;9.40;;;;;;;;;;4982109;28;20477;-58
2022/02/15 04:40:49;;;;;;;14.87;9.87;;;;;;;;;;4981974;28;20266;-59
2022/02/15 04:43:14;;;;;;;12.30;9.40;;;;;;;;;;4980227;28;20015;-59
2022/02/15 04:45:39;;;;;;;11.97;9.53;;;;;;;;;;4981794;28;20031;-59
2022/02/15 04:48:05;;;;;;;12.17;9.67;;;;;;;;;;4981674;28;20376;-59
2022/02/15 04:50:30;;;;;;;11.85;8.55;;;;;;;;;;4964873;28;20277;-58
2022/02/15 04:52:55;;;;;;;10.47;8.80;;;;;;;;;;4975820;28;20027;-59
2022/02/15 04:55:20;;;;;;;12.05;9.35;;;;;;;;;;4969713;28;20026;-59
2022/02/15 04:57:46;;;;;;;12.95;9.45;;;;;;;;;;4963567;28;20018;-59
2022/02/15 05:00:11;;;;;;;12.17;9.67;;;;;;;;;;4981925;28;20533;-59
2022/02/15 05:02:37;;;;;;;10.95;8.98;;;;;;;;;;4981969;28;20310;-59
2022/02/15 05:05:02;;;;;;;12.25;9.27;;;;;;;;;;4981408;28;20030;-59
2022/02/15 05:07:29;;;;;;;11.65;9.40;;;;;;;;;;4982021;28;20014;-59
2022/02/15 05:09:54;;;;;;;11.77;8.90;;;;;;;;;;4969461;28;20030;-59
2022/02/15 05:12:20;;;;;;;10.93;8.52;;;;;;;;;;4989212;28;20534;-59
2022/02/15 05:14:45;;;;;;;12.10;9.40;;;;;;;;;;4965154;28;20516;-59
2022/02/15 05:17:10;;;;;;;12.77;9.63;;;;;;;;;;4968282;28;21188;-59
2022/02/15 05:19:35;;;;;;;11.97;9.37;;;;;;;;;;4960869;28;20030;-58
2022/02/15 05:22:01;;;;;;;11.25;9.10;;;;;;;;;;4967170;28;20270;-61
2022/02/15 05:24:26;;;;;;;11.82;8.70;;;;;;;;;;4975163;28;20026;-58
2022/02/15 05:26:51;;;;;;;11.50;8.87;;;;;;;;;;4980686;28;20031;-59
2022/02/15 05:29:16;;;;;;;12.05;9.23;;;;;;;;;;4980818;28;20348;-61
2022/02/15 05:31:42;;;;;;;13.00;8.98;;;;;;;;;;4980007;28;20015;-60
2022/02/15 05:34:07;;;;;;;11.90;8.32;;;;;;;;;;4980328;28;20132;-59
2022/02/15 05:36:33;;;;;;;12.33;9.07;;;;;;;;;;4981093;28;20026;-63
2022/02/15 05:38:58;;;;;;;14.05;9.25;;;;;;;;;;4980336;28;20484;-62
2022/02/15 05:41:24;;;;;;;12.35;8.98;;;;;;;;;;4980392;28;20026;-60
2022/02/15 05:43:49;;;;;;;14.25;9.25;;;;;;;;;;4979874;28;20548;-60
2022/02/15 05:46:14;;;;;;;11.13;8.23;;;;;;;;;;4979410;28;20026;-59
2022/02/15 05:48:39;;;;;;;11.33;8.63;;;;;;;;;;4978377;28;20061;-59
2022/02/15 05:51:05;;;;;;;10.67;8.47;;;;;;;;;;4968978;28;20286;-59
2022/02/15 05:53:30;;;;;;;11.50;8.70;;;;;;;;;;4974321;28;20036;-59
2022/02/15 05:55:58;;;;;;;11.45;8.65;;;;;;;;;;4975354;28;20030;-60
2022/02/15 05:58:23;;;;;;;11.35;8.85;;;;;;;;;;4982923;28;20026;-60
2022/02/15 06:00:49;;;;;;;13.13;9.93;;;;;;;;;;4984263;28;20092;-60
2022/02/15 06:05:58;;;;;;;11.95;9.10;;;;;;;;;;4984935;28;20032;-60
2022/02/15 06:08:24;;;;;;;13.60;9.20;;;;;;;;;;4968317;28;20027;-59
2022/02/15 06:10:49;;;;;;;11.25;8.82;;;;;;;;;;4984436;28;20037;-58
2022/02/15 06:13:14;;;;;;;12.07;8.87;;;;;;;;;;4984070;28;20109;-57
2022/02/15 06:15:40;;;;;;;11.43;8.85;;;;;;;;;;4983815;28;20297;-57
2022/02/15 06:18:05;;;;;;;12.17;8.73;;;;;;;;;;4984374;28;20708;-56
2022/02/15 06:20:30;;;;;;;11.40;8.63;;;;;;;;;;4983686;28;20367;-57
2022/02/15 06:22:56;;;;;;;11.48;8.57;;;;;;;;;;4984471;28;20026;-57
2022/02/15 06:25:21;;;;;;;11.82;8.38;;;;;;;;;;4983753;28;20030;-56
2022/02/15 06:27:46;;;;;;;11.93;8.60;;;;;;;;;;4983358;28;20052;-56
2022/02/15 06:30:11;;;;;;;10.87;8.47;;;;;;;;;;4983572;28;20038;-56
2022/02/15 06:32:37;;;;;;;13.45;8.52;;;;;;;;;;4983936;28;20100;-57
2022/02/15 06:35:02;;;;;;;12.70;8.70;;;;;;;;;;4978647;28;20114;-58
2022/02/15 06:37:27;;;;;;;11.75;8.63;;;;;;;;;;4976443;28;20026;-57
2022/02/15 06:39:52;;;;;;;11.00;8.70;;;;;;;;;;4956028;28;20022;-59
2022/02/15 06:42:18;;;;;;;11.63;8.73;;;;;;;;;;4977674;28;20022;-61
2022/02/15 06:44:44;;;;;;;12.18;9.13;;;;;;;;;;4969121;28;20791;-59
2022/02/15 06:47:09;;;;;;;11.10;8.90;;;;;;;;;;4983326;28;20043;-58
2022/02/15 06:49:34;;;;;;;11.97;8.60;;;;;;;;;;4982940;28;20282;-57
2022/02/15 06:51:59;;;;;;;12.90;8.38;;;;;;;;;;4983987;28;20104;-55
2022/02/15 06:54:26;;;;;;;12.43;9.40;;;;;;;;;;4983485;28;20507;-59
2022/02/15 06:56:51;;;;;;;11.18;9.13;;;;;;;;;;4972481;28;20037;-57
2022/02/15 06:59:16;;;;;;;13.10;9.70;;;;;;;;;;4978744;28;20409;-55
2022/02/15 07:01:43;;;;;;;12.40;9.30;;;;;;;;;;4983273;28;20468;-56
2022/02/15 07:04:08;;;;;;;12.43;8.77;;;;;;;;;;4982838;28;20240;-63
2022/02/15 07:06:34;;;;;;;10.70;8.67;;;;;;;;;;4981816;28;20446;-60
2022/02/15 07:08:59;;;;;;;12.70;8.87;;;;;;;;;;4983684;28;20754;-58
2022/02/15 07:11:24;;;;;;;14.70;9.23;;;;;;;;;;4980430;28;20243;-58
2022/02/15 07:13:50;;;;;;;13.60;9.70;;;;;;;;;;4983022;28;20408;-58
2022/02/15 07:16:16;;;;;;;12.55;9.90;;;;;;;;;;4985687;28;20261;-59
2022/02/15 07:18:43;;;;;;;11.18;8.88;;;;;;;;;;4986090;28;20567;-58
2022/02/15 07:21:08;;;;;;;13.80;9.80;;;;;;;;;;4982582;28;20019;-57
2022/02/15 07:23:33;;;;;;;12.93;9.57;;;;;;;;;;4964390;28;20038;-58
2022/02/15 07:25:58;;;;;;;12.63;9.63;;;;;;;;;;4962604;28;20444;-57
2022/02/15 07:28:24;;;;;;;14.13;9.77;;;;;;;;;;4963334;28;20355;-58
2022/02/15 07:30:49;;;;;;;12.75;9.60;;;;;;;;;;4967911;28;20269;-57
2022/02/15 07:33:14;;;;;;;12.77;9.40;;;;;;;;;;4970024;28;20038;-58
2022/02/15 07:35:39;;;;;;;13.03;9.20;;;;;;;;;;4966119;28;20030;-58
2022/02/15 07:38:05;;;;;;;14.40;10.97;;;;;;;;;;4969351;28;20026;-57
2022/02/15 07:40:30;;;;;;;14.47;10.70;;;;;;;;;;4964726;28;20022;-58
2022/02/15 07:42:55;;;;;;;12.55;10.00;;;;;;;;;;4964028;28;20281;-58
2022/02/15 07:45:20;;;;;;;13.20;10.30;;;;;;;;;;4963914;28;20054;-58
2022/02/15 07:47:46;;;;;;;14.13;9.98;;;;;;;;;;4964637;28;20043;-58
2022/02/15 07:50:12;;;;;;;13.07;10.07;;;;;;;;;;4964257;28;20062;-58
2022/02/15 07:52:37;;;;;;;13.20;10.02;;;;;;;;;;4963626;28;20019;-58
2022/02/15 07:55:02;;;;;;;13.90;10.20;;;;;;;;;;4964331;28;20030;-59
2022/02/15 07:57:27;;;;;;;13.45;10.10;;;;;;;;;;4963929;28;20077;-58
2022/02/15 07:59:53;;;;;;;13.10;9.93;;;;;;;;;;4964094;28;20709;-58
2022/02/15 08:02:19;;;;;;;13.77;10.10;;;;;;;;;;4963052;28;20445;-58
2022/02/15 08:04:44;;;;;;;14.45;10.40;;;;;;;;;;4964912;28;20050;-58
2022/02/15 08:07:09;;;;;;;13.27;10.57;;;;;;;;;;4963810;28;20726;-59
2022/02/15 08:09:35;;;;;;;14.63;10.30;;;;;;;;;;4964186;28;20042;-58
2022/02/15 08:12:08;;;;;;;13.00;9.83;;;;;;;;;;4962193;28;20357;-58
2022/02/15 08:14:34;;;;;;;15.50;10.35;;;;;;;;;;4964509;28;20277;-58
2022/02/15 08:17:00;;;;;;;13.52;10.50;;;;;;;;;;4969023;28;20039;-58
2022/02/15 08:19:26;;;;;;;13.37;9.80;;;;;;;;;;4981871;28;20104;-59
2022/02/15 08:21:54;;;;;;;13.52;9.77;;;;;;;;;;4981827;28;20289;-57
2022/02/15 08:24:19;;;;;;;13.25;9.60;;;;;;;;;;4982330;28;20054;-56
2022/02/15 08:26:44;;;;;;;13.37;9.43;;;;;;;;;;4976454;28;20105;-57
2022/02/15 08:29:12;;;;;;;12.70;9.57;;;;;;;;;;4961692;28;20062;-57
2022/02/15 08:31:37;;;;;;;12.73;9.80;;;;;;;;;;4963674;28;20110;-57
2022/02/15 08:34:02;;;;;;;13.20;9.40;;;;;;;;;;4961678;28;20118;-57
2022/02/15 08:36:27;;;;;;;13.43;9.63;;;;;;;;;;4963972;28;20377;-57
2022/02/15 08:38:53;;;;;;;13.00;9.37;;;;;;;;;;4965831;28;20022;-57
2022/02/15 08:41:19;;;;;;;13.80;9.65;;;;;;;;;;4982035;28;20030;-57
2022/02/15 08:43:44;;;;;;;14.52;9.85;;;;;;;;;;4981171;28;20272;-57
2022/02/15 08:46:09;;;;;;;12.55;9.25;;;;;;;;;;4981870;28;20027;-57
2022/02/15 08:48:34;;;;;;;14.27;10.10;;;;;;;;;;4981610;28;20043;-58
2022/02/15 08:51:01;;;;;;;15.30;10.07;;;;;;;;;;4981718;28;20029;-57
2022/02/15 08:53:26;;;;;;;13.63;10.35;;;;;;;;;;4981326;28;20273;-57
2022/02/15 08:55:51;;;;;;;14.63;10.17;;;;;;;;;;4969151;28;20109;-57
2022/02/15 08:58:17;;;;;;;14.95;10.40;;;;;;;;;;4976832;28;20117;-57
2022/02/15 09:00:42;;;;;;;13.13;9.70;;;;;;;;;;4981850;28;20493;-57
2022/02/15 09:03:07;;;;;;;13.97;10.10;;;;;;;;;;4981321;28;20645;-57
2022/02/15 09:05:32;;;;;;;16.00;10.70;;;;;;;;;;4981560;28;20321;-57
2022/02/15 09:07:58;;;;;;;14.67;11.00;;;;;;;;;;4963510;28;20277;-57
2022/02/15 09:10:23;;;;;;;14.20;10.18;;;;;;;;;;4981767;28;21272;-57
2022/02/15 09:12:48;;;;;;;14.87;10.30;;;;;;;;;;4980966;28;20045;-57
2022/02/15 09:15:13;;;;;;;14.57;10.10;;;;;;;;;;4981468;28;20288;-57
2022/02/15 09:17:39;;;;;;;13.77;10.57;;;;;;;;;;4981855;28;20014;-57
2022/02/15 09:20:08;;;;;;;13.85;9.75;;;;;;;;;;4965858;28;20033;-56
2022/02/15 09:22:34;;;;;;;13.63;10.15;;;;;;;;;;4971203;28;20027;-57
2022/02/15 09:24:59;;;;;;;13.07;10.30;;;;;;;;;;4971838;28;20504;-57
2022/02/15 09:27:26;;;;;;;14.55;10.23;;;;;;;;;;4980535;28;20535;-57
2022/02/15 09:29:52;;;;;;;14.13;10.50;;;;;;;;;;4984537;28;20030;-56
2022/02/15 09:32:17;;;;;;;14.18;10.13;;;;;;;;;;4974587;28;20154;-56
2022/02/15 09:34:42;;;;;;;15.33;9.97;;;;;;;;;;4972419;28;20045;-57
2022/02/15 09:37:07;;;;;;;14.10;10.43;;;;;;;;;;4987090;28;20351;-56
2022/02/15 09:39:33;;;;;;;13.73;10.10;;;;;;;;;;4987796;28;20508;-57
2022/02/15 09:41:58;;;;;;;14.77;9.93;;;;;;;;;;4987361;28;20930;-57
2022/02/15 09:44:23;;;;;;;14.80;10.47;;;;;;;;;;4986926;28;20396;-57
2022/02/15 09:46:48;;;;;;;15.63;10.67;;;;;;;;;;4985933;28;20276;-57
2022/02/15 09:51:58;;;;;;;13.63;9.80;;;;;;;;;;4977571;28;20275;-59
2022/02/15 09:54:23;;;;;;;14.35;10.43;;;;;;;;;;4975856;28;20023;-58
2022/02/15 09:56:48;;;;;;;13.43;9.95;;;;;;;;;;4983008;28;20022;-58
2022/02/15 09:59:14;;;;;;;13.20;9.93;;;;;;;;;;4965906;28;20041;-58
2022/02/15 10:01:39;;;;;;;13.50;9.55;;;;;;;;;;4976352;28;20022;-59
2022/02/15 10:04:06;;;;;;;14.93;10.10;;;;;;;;;;4976749;28;20030;-59
2022/02/15 10:06:32;;;;;;;14.00;9.60;;;;;;;;;;4968203;28;20655;-58
2022/02/15 10:08:59;;;;;;;14.65;9.93;;;;;;;;;;4986830;28;20170;-58
2022/02/15 10:11:32;;;;;;;12.88;9.38;;;;;;;;;;4985665;28;20054;-58
2022/02/15 10:13:57;;;;;;;12.43;9.02;;;;;;;;;;4985549;28;20030;-57
2022/02/15 10:16:23;;;;;;;12.10;8.93;;;;;;;;;;4987090;28;20041;-56
2022/02/15 10:18:54;;;;;;;14.40;9.57;;;;;;;;;;4986796;28;20026;-58
2022/02/15 10:21:19;;;;;;;13.07;9.30;;;;;;;;;;4987067;28;20281;-59
2022/02/15 10:23:49;;;;;;;12.97;8.90;;;;;;;;;;4986912;28;20045;-59
2022/02/15 10:26:14;;;;;;;13.07;8.60;;;;;;;;;;4969729;28;20030;-59
2022/02/15 10:28:39;;;;;;;15.00;9.43;;;;;;;;;;4952932;28;20041;-59
2022/02/15 10:31:05;;;;;;;12.95;9.52;;;;;;;;;;4982382;28;20109;-60
2022/02/15 10:33:31;;;;;;;17.77;9.80;;;;;;;;;;4975708;28;20022;-56
2022/02/15 10:35:59;;;;;;;11.50;8.90;;;;;;;;;;4986817;28;20164;-58
2022/02/15 10:38:26;;;;;;;12.90;8.90;;;;;;;;;;4986844;28;20028;-59
2022/02/15 10:40:58;;;;;;;13.05;8.90;;;;;;;;;;4984386;28;20029;-58
2022/02/15 10:43:24;;;;;;;12.95;9.27;;;;;;;;;;4983523;28;20026;-59
2022/02/15 10:45:49;;;;;;;13.48;9.60;;;;;;;;;;4983717;28;20038;-59
2022/02/15 10:48:15;;;;;;;13.43;9.27;;;;;;;;;;4983669;28;20043;-58
2022/02/15 10:50:40;;;;;;;12.23;8.87;;;;;;;;;;4983190;28;20285;-57
2022/02/15 10:53:05;;;;;;;12.00;8.73;;;;;;;;;;4960439;28;20037;-57
2022/02/15 10:55:30;;;;;;;12.60;8.40;;;;;;;;;;4979532;28;20034;-58
2022/02/15 10:57:55;;;;;;;13.80;9.53;;;;;;;;;;4962201;28;21165;-57
2022/02/15 11:00:21;;;;;;;14.50;10.10;;;;;;;;;;4983000;28;20484;-58
2022/02/15 11:02:47;;;;;;;12.85;9.23;;;;;;;;;;4983080;28;20765;-58
2022/02/15 11:05:13;;;;;;;12.10;8.60;;;;;;;;;;4982415;28;20543;-58
2022/02/15 11:07:39;;;;;;;11.75;9.02;;;;;;;;;;4976174;28;20023;-57
2022/02/15 11:10:07;;;;;;;14.15;8.93;;;;;;;;;;4968151;28;20065;-57
2022/02/15 11:12:32;;;;;;;12.13;8.32;;;;;;;;;;4979064;28;20412;-60
2022/02/15 11:15:02;;;;;;;11.20;8.50;;;;;;;;;;4965760;28;20022;-58
2022/02/15 11:17:27;;;;;;;13.95;8.93;;;;;;;;;;4972868;28;20046;-58
2022/02/15 11:19:59;;;;;;;12.73;8.77;;;;;;;;;;4962120;28;20119;-58
2022/02/15 11:22:24;;;;;;;11.82;8.73;;;;;;;;;;4978906;28;20022;-57
2022/02/15 11:24:50;;;;;;;11.70;8.18;;;;;;;;;;4982258;28;20034;-58
2022/02/15 11:27:15;;;;;;;12.55;8.85;;;;;;;;;;4981851;28;20056;-57
2022/02/15 11:29:49;;;;;;;11.02;8.27;;;;;;;;;;4982620;28;20015;-57
2022/02/15 11:32:21;;;;;;;12.45;8.73;;;;;;;;;;4969476;28;20030;-57
2022/02/15 11:34:47;;;;;;;11.32;8.60;;;;;;;;;;4961934;28;20007;-56
2022/02/15 11:37:16;;;;;;;12.20;8.95;;;;;;;;;;4967148;28;20026;-58
2022/02/15 11:39:41;;;;;;;10.93;8.50;;;;;;;;;;4982874;28;20105;-56
2022/02/15 11:42:13;;;;;;;11.53;8.70;;;;;;;;;;4981928;28;20184;-58
2022/02/15 11:44:39;;;;;;;12.02;8.80;;;;;;;;;;4982084;28;20037;-58
2022/02/15 11:47:12;;;;;;;11.63;8.57;;;;;;;;;;4964940;28;20038;-58
2022/02/15 11:49:47;;;;;;;10.63;8.00;;;;;;;;;;4982358;28;20096;-57
2022/02/15 11:52:12;;;;;;;11.55;8.52;;;;;;;;;;4982218;28;20027;-57
2022/02/15 11:54:37;;;;;;;12.40;8.60;;;;;;;;;;4982377;28;20091;-57
2022/02/15 11:57:03;;;;;;;10.70;8.30;;;;;;;;;;4977788;28;20015;-57
2022/02/15 11:59:28;;;;;;;10.45;8.27;;;;;;;;;;4973062;28;20168;-57
2022/02/15 12:01:57;;;;;;;10.60;8.32;;;;;;;;;;4972317;28;20015;-59
2022/02/15 12:04:23;;;;;;;11.77;8.73;;;;;;;;;;4979107;28;20072;-58
2022/02/15 12:06:48;;;;;;;10.50;8.23;;;;;;;;;;4966583;28;20396;-58
2022/02/15 12:09:13;;;;;;;11.23;8.50;;;;;;;;;;4983934;28;20277;-58
2022/02/15 12:11:39;;;;;;;10.90;8.23;;;;;;;;;;4973664;28;20281;-58
2022/02/15 12:14:14;;;;;;;10.85;8.30;;;;;;;;;;4975401;28;20113;-59
2022/02/15 12:16:43;;;;;;;12.20;8.30;;;;;;;;;;4980998;28;20449;-58
2022/02/15 12:19:08;;;;;;;10.90;8.55;;;;;;;;;;4967614;28;20030;-57
2022/02/15 12:21:37;;;;;;;12.32;8.63;;;;;;;;;;4982534;28;20041;-58
2022/02/15 12:24:02;;;;;;;10.88;8.10;;;;;;;;;;4982049;28;20608;-57
2022/02/15 12:26:27;;;;;;;12.93;8.50;;;;;;;;;;4982265;28;20058;-57
2022/02/15 12:28:56;;;;;;;9.95;7.60;;;;;;;;;;4980987;28;20113;-59
2022/02/15 12:31:25;;;;;;;12.15;8.23;;;;;;;;;;4970895;28;20026;-58
2022/02/15 12:33:50;;;;;;;11.18;8.68;;;;;;;;;;4983660;28;20029;-58
2022/02/15 12:36:15;;;;;;;10.13;7.60;;;;;;;;;;4981742;28;20026;-58
2022/02/15 12:38:41;;;;;;;11.00;8.50;;;;;;;;;;4964687;28;20266;-59
2022/02/15 12:41:15;;;;;;;10.77;8.30;;;;;;;;;;4962186;28;20046;-58
2022/02/15 12:43:40;;;;;;;10.20;8.05;;;;;;;;;;4972312;28;20281;-57
2022/02/15 12:46:05;;;;;;;10.13;8.20;;;;;;;;;;4981440;28;20658;-58
2022/02/15 12:48:31;;;;;;;9.87;7.63;;;;;;;;;;4980597;28;20814;-57
2022/02/15 12:50:56;;;;;;;11.57;7.90;;;;;;;;;;4965543;28;20489;-57
2022/02/15 12:53:21;;;;;;;11.93;8.40;;;;;;;;;;4974472;28;20390;-58
2022/02/15 12:55:50;;;;;;;9.83;7.63;;;;;;;;;;4958315;28;20769;-58
2022/02/15 12:58:15;;;;;;;12.05;8.23;;;;;;;;;;4962722;28;20042;-59
2022/02/15 13:00:40;;;;;;;10.70;8.00;;;;;;;;;;4962207;28;20026;-57
2022/02/15 13:03:06;;;;;;;10.70;8.07;;;;;;;;;;4961563;28;20503;-57
2022/02/15 13:05:31;;;;;;;10.57;8.13;;;;;;;;;;4962847;28;20301;-58
2022/02/15 13:07:56;;;;;;;10.73;8.10;;;;;;;;;;4945428;28;20081;-58
2022/02/15 13:10:22;;;;;;;10.90;7.83;;;;;;;;;;4963463;28;20022;-58
2022/02/15 13:12:47;;;;;;;10.80;8.35;;;;;;;;;;4965553;28;20037;-57
2022/02/15 13:15:16;;;;;;;11.57;7.50;;;;;;;;;;4965604;28;20097;-57
2022/02/15 13:17:42;;;;;;;12.25;8.38;;;;;;;;;;4962618;28;21059;-58
2022/02/15 13:20:26;;;;;;;8.98;7.28;;;;;;;;;;4962182;28;20469;-58
2022/02/15 13:23:03;;;;;;;11.65;8.00;;;;;;;;;;4946597;28;20027;-58
2022/02/15 13:25:37;;;;;;;9.50;7.65;;;;;;;;;;4962264;28;20120;-59
2022/02/15 13:28:03;;;;;;;11.13;7.60;;;;;;;;;;4960904;28;20102;-57
2022/02/15 13:30:28;;;;;;;9.85;7.85;;;;;;;;;;4977255;28;20161;-58
2022/02/15 13:32:57;;;;;;;10.07;7.32;;;;;;;;;;4971139;28;20338;-58
2022/02/15 13:35:22;;;;;;;10.63;8.18;;;;;;;;;;4961315;28;20011;-57
2022/02/15 13:37:51;;;;;;;9.57;7.50;;;;;;;;;;4960806;28;20026;-58
2022/02/15 13:40:16;;;;;;;8.70;7.05;;;;;;;;;;4944077;28;20037;-58
2022/02/15 13:42:41;;;;;;;10.25;7.85;;;;;;;;;;4959950;28;20564;-57
2022/02/15 13:45:07;;;;;;;10.67;7.40;;;;;;;;;;4960855;28;20516;-58
2022/02/15 13:47:32;;;;;;;11.20;7.55;;;;;;;;;;4962000;28;20282;-57
2022/02/15 13:49:57;;;;;;;9.20;7.20;;;;;;;;;;4962734;28;20038;-58
2022/02/15 13:52:23;;;;;;;9.27;7.10;;;;;;;;;;4964280;28;20022;-57
2022/02/15 13:54:49;;;;;;;9.25;7.50;;;;;;;;;;4967875;28;20026;-57
2022/02/15 13:57:14;;;;;;;9.27;7.13;;;;;;;;;;4965743;28;20568;-58
2022/02/15 13:59:39;;;;;;;10.75;7.97;;;;;;;;;;4963956;28;20045;-58
2022/02/15 14:02:05;;;;;;;9.90;7.22;;;;;;;;;;4962529;28;20505;-57
2022/02/15 14:04:30;;;;;;;10.02;7.18;;;;;;;;;;4965910;28;20120;-58
2022/02/15 14:06:56;;;;;;;10.63;8.07;;;;;;;;;;4962530;28;20029;-59
2022/02/15 14:09:21;;;;;;;9.55;7.03;;;;;;;;;;4962831;28;20125;-58
2022/02/15 14:11:46;;;;;;;10.53;7.57;;;;;;;;;;4960614;28;20642;-58
2022/02/15 14:14:11;;;;;;;9.43;7.23;;;;;;;;;;4961325;28;20301;-57
2022/02/15 14:16:36;;;;;;;9.97;7.47;;;;;;;;;;4964264;28;20262;-57
2022/02/15 14:19:02;;;;;;;8.83;7.07;;;;;;;;;;4968112;28;20269;-57
2022/02/15 14:21:27;;;;;;;9.63;7.25;;;;;;;;;;4977450;28;20748;-58
2022/02/15 14:23:52;;;;;;;9.97;7.50;;;;;;;;;;4949594;28;20034;-58
2022/02/15 14:26:18;;;;;;;9.10;7.00;;;;;;;;;;4969348;28;20887;-57
2022/02/15 14:28:43;;;;;;;10.32;7.47;;;;;;;;;;4951094;28;20270;-57